Time;durP1;ratioP1;P1;durP2;ratioP2;P2;SDS_P1;SDS_P2;PMS_P1;PMS_P2;Temp;Humidity;BMP_temperature;BMP_pressure;BME280_temperature;BME280_humidity;BME280_pressure;Samples;Min_cycle;Max_cycle;Signal;HPM_P1;HPM_P2
2021/10/29 00:00:08;;;;;;;;;16.25;16.25;;;;;14.66;54.16;100406.28;5083369;27;45430;-63
2021/10/29 00:02:34;;;;;;;;;16.75;16.75;;;;;14.63;54.11;100399.28;5083311;27;45469;-63
2021/10/29 00:04:59;;;;;;;;;14.50;14.50;;;;;14.62;54.36;100400.19;5081974;28;45263;-63
2021/10/29 00:07:25;;;;;;;;;16.50;15.00;;;;;14.61;54.04;100396.69;5083175;27;45437;-63
2021/10/29 00:09:52;;;;;;;;;18.00;14.25;;;;;14.58;54.30;100390.66;5081903;27;45256;-63
2021/10/29 00:12:22;;;;;;;;;16.50;14.00;;;;;14.58;54.23;100391.50;5083258;27;45219;-63
2021/10/29 00:14:48;;;;;;;;;13.00;12.00;;;;;14.54;54.00;100381.97;5090412;27;45413;-63
2021/10/29 00:17:13;;;;;;;;;18.00;16.00;;;;;14.53;53.91;100388.19;5103144;27;45475;-62
2021/10/29 00:19:39;;;;;;;;;13.00;13.00;;;;;14.53;53.87;100382.88;5103611;27;45384;-62
2021/10/29 00:22:04;;;;;;;;;12.00;12.00;;;;;14.52;54.60;100383.81;5103521;27;45337;-62
2021/10/29 00:24:30;;;;;;;;;17.00;15.50;;;;;14.52;54.38;100377.66;5103739;27;45374;-63
2021/10/29 00:26:56;;;;;;;;;17.50;13.25;;;;;14.50;54.21;100382.13;5103106;27;46389;-63
2021/10/29 00:29:21;;;;;;;;;15.75;15.00;;;;;14.48;54.64;100382.19;5103369;27;45223;-63
2021/10/29 00:31:48;;;;;;;;;18.00;13.00;;;;;14.47;54.67;100383.09;5089003;27;45562;-63
2021/10/29 00:34:14;;;;;;;;;15.50;15.25;;;;;14.46;54.70;100391.94;5083140;27;45224;-63
2021/10/29 00:36:39;;;;;;;;;16.25;13.75;;;;;14.45;54.19;100384.94;5082520;27;46272;-63
2021/10/29 00:39:05;;;;;;;;;16.00;15.00;;;;;14.43;54.56;100370.94;5081549;27;45348;-63
2021/10/29 00:41:31;;;;;;;;;17.25;16.00;;;;;14.42;54.68;100377.13;5082863;27;45291;-63
2021/10/29 00:43:57;;;;;;;;;16.50;14.75;;;;;14.42;54.77;100369.19;5082718;27;45322;-63
2021/10/29 00:46:23;;;;;;;;;14.75;13.50;;;;;14.40;54.87;100365.72;5082413;27;45382;-63
2021/10/29 00:48:49;;;;;;;;;17.50;13.50;;;;;14.38;54.28;100362.31;5081132;27;45332;-63
2021/10/29 00:51:15;;;;;;;;;21.00;15.50;;;;;14.37;54.55;100372.00;5095946;27;45276;-63
2021/10/29 00:53:41;;;;;;;;;15.25;14.00;;;;;14.37;54.88;100363.22;5082873;27;45342;-63
2021/10/29 00:56:07;;;;;;;;;15.50;14.50;;;;;14.37;54.77;100360.56;5082514;27;45359;-63
2021/10/29 00:58:33;;;;;;;;;16.50;15.00;;;;;14.34;54.82;100355.38;5082426;27;45216;-64
2021/10/29 01:00:59;;;;;;;;;12.50;12.25;;;;;14.33;54.99;100357.19;5080322;27;45266;-63
2021/10/29 01:03:24;;;;;;;;;26.75;22.75;;;;;14.32;54.33;100358.09;5081760;27;45644;-63
2021/10/29 01:05:49;;;;;;;;;111.67;96.67;;;;;14.29;54.80;100364.34;5082365;27;46064;-63
2021/10/29 01:08:15;;;;;;;;;75.25;60.00;;;;;14.27;54.52;100358.25;5082294;27;45196;-63
2021/10/29 01:10:40;;;;;;;;;74.00;60.00;;;;;14.24;54.82;100358.38;5082567;27;45386;-63
2021/10/29 01:13:06;;;;;;;;;34.50;30.75;;;;;14.24;54.50;100352.22;5082094;27;45292;-63
2021/10/29 01:15:32;;;;;;;;;25.25;24.25;;;;;14.23;54.88;100353.13;5080825;28;46942;-63
2021/10/29 01:17:58;;;;;;;;;19.50;18.75;;;;;14.21;54.56;100361.09;5081742;27;45316;-63
2021/10/29 01:20:24;;;;;;;;;15.00;14.25;;;;;14.20;54.80;100353.22;5080864;27;45382;-63
2021/10/29 01:22:50;;;;;;;;;22.00;17.75;;;;;14.18;54.90;100340.09;5082107;27;45485;-63
2021/10/29 01:25:16;;;;;;;;;15.25;12.25;;;;;14.17;54.91;100329.56;5081900;27;47175;-63
2021/10/29 01:27:41;;;;;;;;;17.75;15.50;;;;;14.16;55.07;100326.06;5080595;27;45297;-63
2021/10/29 01:30:09;;;;;;;;;17.25;16.00;;;;;14.14;54.88;100327.91;5094075;27;45241;-63
2021/10/29 01:32:35;;;;;;;;;14.00;13.00;;;;;14.16;55.19;100319.91;5082102;27;45573;-63
2021/10/29 01:35:01;;;;;;;;;18.00;17.25;;;;;14.11;55.02;100322.72;5080517;27;47628;-63
2021/10/29 01:37:26;;;;;;;;;18.25;12.50;;;;;14.10;54.78;100323.63;5081841;27;45402;-63
2021/10/29 01:39:52;;;;;;;;;15.00;14.00;;;;;14.07;55.20;100321.09;5082133;27;45517;-63
2021/10/29 01:42:19;;;;;;;;;14.50;13.25;;;;;14.03;54.91;100316.84;5088535;27;45252;-63
2021/10/29 01:44:46;;;;;;;;;12.25;11.75;;;;;14.02;55.22;100304.56;5102279;27;45662;-62
2021/10/29 01:47:12;;;;;;;;;14.50;14.50;;;;;14.02;54.90;100315.13;5102032;27;45340;-63
2021/10/29 01:49:39;;;;;;;;;13.50;13.50;;;;;13.99;55.22;100313.44;5102383;27;45244;-63
2021/10/29 01:52:06;;;;;;;;;15.00;15.00;;;;;13.98;55.21;100298.50;5095432;27;45454;-63
2021/10/29 01:54:31;;;;;;;;;11.25;11.25;;;;;13.95;54.99;100302.13;5081517;27;46359;-63
2021/10/29 01:56:58;;;;;;;;;14.50;12.00;;;;;13.93;55.02;100297.81;5081443;27;45298;-63
2021/10/29 01:59:25;;;;;;;;;12.25;11.75;;;;;13.93;55.31;100305.75;5080406;27;45313;-63
2021/10/29 02:01:51;;;;;;;;;13.50;13.50;;;;;13.89;54.89;100302.34;5079889;27;45313;-63
2021/10/29 02:04:16;;;;;;;;;10.50;10.50;;;;;13.87;54.95;100282.19;5081296;27;46141;-63
2021/10/29 02:06:42;;;;;;;;;17.50;13.00;;;;;13.86;55.26;100286.63;5080154;28;45229;-63
2021/10/29 02:09:08;;;;;;;;;13.00;12.50;;;;;13.82;55.42;100290.25;5081549;27;45295;-63
2021/10/29 02:11:33;;;;;;;;;11.75;11.75;;;;;13.82;55.13;100287.63;5081584;28;45161;-63
2021/10/29 02:13:58;;;;;;;;;9.50;9.50;;;;;13.78;55.19;100278.94;5080839;27;46147;-62
2021/10/29 02:16:24;;;;;;;;;16.50;11.75;;;;;13.79;55.16;100279.81;5081278;27;45486;-62
2021/10/29 02:18:49;;;;;;;;;15.25;13.25;;;;;13.77;54.92;100285.16;5081293;27;45295;-63
2021/10/29 02:21:16;;;;;;;;;14.25;12.00;;;;;13.76;55.00;100282.53;5079880;27;45396;-63
2021/10/29 02:23:41;;;;;;;;;13.25;11.75;;;;;13.72;55.06;100278.28;5081034;27;46528;-63
2021/10/29 02:26:06;;;;;;;;;14.00;14.00;;;;;13.70;55.11;100273.06;5081184;27;45251;-63
2021/10/29 02:28:32;;;;;;;;;13.00;12.75;;;;;13.68;55.03;100272.25;5081385;27;45303;-64
2021/10/29 02:30:57;;;;;;;;;14.25;12.25;;;;;13.67;55.33;100267.88;5093978;27;45270;-63
2021/10/29 02:33:22;;;;;;;;;13.25;11.50;;;;;13.63;55.31;100258.34;5080904;27;46165;-63
2021/10/29 02:35:48;;;;;;;;;14.50;13.50;;;;;13.62;55.37;100265.44;5080853;27;45272;-63
2021/10/29 02:38:14;;;;;;;;;14.75;14.00;;;;;13.60;55.35;100259.31;5081281;27;45337;-63
2021/10/29 02:40:40;;;;;;;;;9.50;9.50;;;;;13.56;55.31;100263.00;5080715;27;45430;-63
2021/10/29 02:43:06;;;;;;;;;12.50;11.25;;;;;13.57;55.35;100251.53;5079489;28;47248;-63
2021/10/29 02:45:31;;;;;;;;;11.25;10.75;;;;;13.53;55.29;100259.59;5080782;27;45428;-63
2021/10/29 02:47:57;;;;;;;;;14.25;11.25;;;;;13.53;55.09;100247.25;5080742;27;45239;-63
2021/10/29 02:50:23;;;;;;;;;14.75;12.00;;;;;13.52;55.45;100260.50;5085322;27;45722;-63
2021/10/29 02:52:49;;;;;;;;;13.00;11.25;;;;;13.48;55.63;100251.81;5087063;27;47486;-62
2021/10/29 02:55:16;;;;;;;;;16.00;11.00;;;;;13.45;55.32;100247.50;5080432;27;45263;-62
2021/10/29 02:57:42;;;;;;;;;12.25;11.50;;;;;13.44;55.69;100239.66;5080746;27;45363;-63
2021/10/29 03:00:11;;;;;;;;;16.50;12.75;;;;;13.43;55.51;100240.56;5079250;28;45511;-62
2021/10/29 03:02:37;;;;;;;;;9.25;9.25;;;;;13.40;55.18;100236.25;5080202;27;46003;-62
2021/10/29 03:05:04;;;;;;;;;11.75;10.25;;;;;13.41;55.17;100224.78;5080359;27;45185;-62
2021/10/29 03:07:30;;;;;;;;;11.75;11.50;;;;;13.40;55.51;100227.47;5080783;27;45316;-62
2021/10/29 03:09:56;;;;;;;;;12.00;11.00;;;;;13.38;55.20;100224.03;5080483;27;45438;-63
2021/10/29 03:12:21;;;;;;;;;11.00;11.00;;;;;13.34;55.31;100215.31;5080248;27;46061;-63
2021/10/29 03:14:47;;;;;;;;;12.25;12.00;;;;;13.35;55.23;100216.19;5079117;28;45379;-63
2021/10/29 03:17:12;;;;;;;;;10.50;9.75;;;;;13.32;55.43;100207.44;5079026;27;45396;-62
2021/10/29 03:19:38;;;;;;;;;9.50;9.25;;;;;13.32;55.18;100209.25;5086074;27;45620;-62
2021/10/29 03:22:04;;;;;;;;;12.50;10.25;;;;;13.29;55.43;100206.69;5100674;27;46169;-62
2021/10/29 03:24:29;;;;;;;;;12.50;9.50;;;;;13.31;55.23;100205.72;5099856;27;45266;-63
2021/10/29 03:26:55;;;;;;;;;12.50;10.75;;;;;13.27;55.45;100196.19;5100712;27;45447;-62
2021/10/29 03:29:20;;;;;;;;;10.50;10.50;;;;;13.29;55.25;100196.97;5100626;27;45595;-62
2021/10/29 03:31:45;;;;;;;;;13.00;11.25;;;;;13.28;55.62;100190.00;5087077;27;46073;-62
2021/10/29 03:34:11;;;;;;;;;13.25;10.50;;;;;13.26;55.67;100181.28;5080211;27;45243;-62
2021/10/29 03:36:37;;;;;;;;;13.50;11.00;;;;;13.26;55.73;100178.63;5080376;27;45649;-62
2021/10/29 03:39:07;;;;;;;;;12.00;10.00;;;;;13.25;55.75;100176.91;5080179;27;45247;-63
2021/10/29 03:41:36;;;;;;;;;13.75;11.75;;;;;13.26;55.69;100177.78;5079799;27;46370;-62
2021/10/29 03:44:27;;;;;;;;;10.00;10.00;;;;;13.27;55.74;100180.38;5079944;27;45441;-62
2021/10/29 03:46:50;;;;;;;;;12.00;11.00;;;;;13.28;55.65;100174.19;5079513;27;45170;-62
2021/10/29 03:49:23;;;;;;;;;13.25;10.75;;;;;13.25;55.90;100161.06;5079983;27;45430;-62
2021/10/29 03:51:53;;;;;;;;;0.00;0.00;;;;;13.26;55.77;100168.06;5093535;27;47004;-62
2021/10/29 03:54:24;;;;;;;;;13.75;10.50;;;;;13.26;55.83;100165.44;5079931;27;45264;-62
2021/10/29 03:57:11;;;;;;;;;11.75;10.75;;;;;13.24;55.91;100167.25;5079891;27;45414;-62
2021/10/29 03:59:37;;;;;;;;;10.25;9.75;;;;;13.25;55.55;100161.06;5079835;27;45395;-62
2021/10/29 04:02:05;;;;;;;;;12.75;12.00;;;;;13.23;56.03;100162.03;5079459;27;46574;-62
2021/10/29 04:04:30;;;;;;;;;9.25;9.25;;;;;13.22;55.95;100157.66;5079778;27;45345;-62
2021/10/29 04:06:56;;;;;;;;;11.00;10.75;;;;;13.22;55.77;100155.03;5079759;27;45349;-62
2021/10/29 04:09:21;;;;;;;;;12.25;9.75;;;;;13.23;56.08;100156.75;5079795;27;45233;-62
2021/10/29 04:11:47;;;;;;;;;12.00;10.75;;;;;13.23;55.74;100157.66;5079753;27;46016;-62
2021/10/29 04:14:13;;;;;;;;;9.00;9.00;;;;;13.23;56.10;100147.09;5079539;27;45259;-62
2021/10/29 04:16:40;;;;;;;;;10.00;7.00;;;;;13.23;55.97;100140.94;5079460;27;45461;-62
2021/10/29 04:19:08;;;;;;;;;13.25;10.50;;;;;13.22;56.12;100139.19;5079532;27;45172;-62
2021/10/29 04:21:33;;;;;;;;;11.25;10.75;;;;;13.22;55.86;100140.09;5079403;27;46322;-61
2021/10/29 04:23:59;;;;;;;;;9.00;9.00;;;;;13.23;55.89;100133.91;5078158;28;45258;-61
2021/10/29 04:26:24;;;;;;;;;9.00;9.00;;;;;13.23;56.09;100135.66;5079766;27;45440;-61
2021/10/29 04:28:55;;;;;;;;;13.25;11.00;;;;;13.23;56.05;100125.97;5079465;27;45260;-61
2021/10/29 04:31:24;;;;;;;;;8.75;8.25;;;;;13.24;56.28;100129.47;5079412;27;45540;-61
2021/10/29 04:33:51;;;;;;;;;10.50;10.25;;;;;13.21;56.04;100122.53;5079067;27;45338;-61
2021/10/29 04:36:18;;;;;;;;;13.50;10.50;;;;;13.22;56.10;100124.25;5080835;27;45414;-61
2021/10/29 04:38:45;;;;;;;;;12.50;9.75;;;;;13.20;56.35;100118.16;5082846;27;45250;-61
2021/10/29 04:41:10;;;;;;;;;10.75;10.25;;;;;13.21;55.96;100124.31;5082726;27;45220;-62
2021/10/29 04:43:35;;;;;;;;;11.25;9.00;;;;;13.20;56.06;100128.72;5082702;27;45158;-62
2021/10/29 04:46:01;;;;;;;;;13.50;10.75;;;;;13.20;56.20;100126.06;5082994;27;45218;-62
2021/10/29 04:48:26;;;;;;;;;7.25;7.25;;;;;13.17;56.27;100126.19;5082460;27;45358;-62
2021/10/29 04:50:51;;;;;;;;;10.00;9.25;;;;;13.15;56.36;100115.66;5092789;27;46085;-62
2021/10/29 04:53:17;;;;;;;;;12.00;11.25;;;;;13.14;56.28;100124.53;5086186;27;45299;-62
2021/10/29 04:55:42;;;;;;;;;10.00;9.00;;;;;13.14;56.27;100116.63;5082843;27;45252;-62
2021/10/29 04:58:09;;;;;;;;;11.25;11.25;;;;;13.14;56.53;100119.25;5082404;27;45473;-62
2021/10/29 05:00:35;;;;;;;;;12.50;11.00;;;;;13.13;56.45;100112.25;5082542;27;47160;-62
2021/10/29 05:03:01;;;;;;;;;10.75;10.50;;;;;13.15;56.05;100115.66;5082024;27;45424;-62
2021/10/29 05:05:27;;;;;;;;;10.00;10.00;;;;;13.16;56.21;100112.13;5082662;27;45337;-62
2021/10/29 05:07:53;;;;;;;;;9.25;9.25;;;;;13.15;56.25;100113.03;5082345;27;45471;-62
2021/10/29 05:10:18;;;;;;;;;9.50;9.50;;;;;13.17;56.17;100113.00;5082336;27;46202;-62
2021/10/29 05:12:47;;;;;;;;;9.00;9.00;;;;;13.17;56.31;100103.31;5082141;27;45231;-62
2021/10/29 05:15:14;;;;;;;;;12.00;11.00;;;;;13.19;56.64;100100.59;5082471;27;45330;-62
2021/10/29 05:17:42;;;;;;;;;8.50;8.50;;;;;13.16;56.21;100096.28;5081905;27;45314;-61
2021/10/29 05:20:08;;;;;;;;;11.75;11.00;;;;;13.17;56.43;100084.84;5082237;27;46450;-62
2021/10/29 05:22:33;;;;;;;;;13.75;12.00;;;;;13.21;56.52;100092.66;5080646;27;45197;-62
2021/10/29 05:24:59;;;;;;;;;8.75;8.75;;;;;13.19;56.54;100094.47;5082313;28;45214;-61
2021/10/29 05:27:24;;;;;;;;;13.50;12.50;;;;;13.20;56.41;100091.78;5081924;27;45208;-62
2021/10/29 05:29:49;;;;;;;;;8.25;7.00;;;;;13.22;56.25;100092.59;5091619;27;46160;-61
2021/10/29 05:32:15;;;;;;;;;14.50;12.25;;;;;13.23;56.61;100094.31;5085419;27;45329;-61
2021/10/29 05:34:40;;;;;;;;;10.25;9.00;;;;;13.23;56.65;100091.69;5082172;27;45277;-62
2021/10/29 05:37:05;;;;;;;;;10.50;10.00;;;;;13.21;56.37;100087.38;5082029;27;45323;-62
2021/10/29 05:39:32;;;;;;;;;11.25;10.50;;;;;13.23;56.65;100077.59;5080712;27;47629;-62
2021/10/29 05:41:58;;;;;;;;;10.00;10.00;;;;;13.24;56.28;100088.09;5081644;27;45276;-62
2021/10/29 05:44:23;;;;;;;;;13.50;10.75;;;;;13.26;56.64;100083.66;5081957;28;45326;-62
2021/10/29 05:46:49;;;;;;;;;13.75;12.25;;;;;13.27;56.64;100076.56;5081183;27;45660;-61
2021/10/29 05:49:15;;;;;;;;;13.00;11.50;;;;;13.26;56.38;100078.38;5081052;27;46207;-62
2021/10/29 05:51:47;;;;;;;;;11.00;11.00;;;;;13.29;56.30;100074.75;5095226;27;45305;-61
2021/10/29 05:56:50;;;;;;;;;9.50;8.50;;;;;13.28;56.65;100071.28;5081446;27;45241;-61
2021/10/29 05:59:16;;;;;;;;;8.00;8.00;;;;;13.28;56.68;100067.75;5081336;27;45380;-61
2021/10/29 06:01:42;;;;;;;;;11.25;9.50;;;;;13.29;56.30;100077.41;5080878;27;45339;-61
2021/10/29 06:04:08;;;;;;;;;10.75;10.75;;;;;13.27;56.68;100061.63;5081704;27;45223;-62
2021/10/29 06:06:33;;;;;;;;;13.00;10.50;;;;;13.27;56.70;100058.09;5081201;27;45219;-62
2021/10/29 06:08:59;;;;;;;;;11.25;11.25;;;;;13.29;56.48;100067.69;5081223;27;46068;-62
2021/10/29 06:11:26;;;;;;;;;11.75;8.75;;;;;13.28;56.48;100058.06;5081316;27;45290;-62
2021/10/29 06:13:52;;;;;;;;;11.50;9.00;;;;;13.28;56.75;100052.81;5081281;27;45548;-63
2021/10/29 06:16:18;;;;;;;;;14.00;12.00;;;;;13.28;56.80;100051.91;5081429;27;45445;-62
2021/10/29 06:18:43;;;;;;;;;10.00;9.50;;;;;13.28;56.66;100046.66;5090845;27;46021;-62
2021/10/29 06:21:10;;;;;;;;;11.00;10.75;;;;;13.28;56.73;100047.53;5101116;27;45431;-62
2021/10/29 06:23:47;;;;;;;;;9.25;8.75;;;;;13.27;56.81;100050.19;5090576;27;45297;-63
2021/10/29 06:26:22;;;;;;;;;10.00;9.25;;;;;13.27;56.98;100044.91;5101110;27;45401;-64
2021/10/29 06:28:47;;;;;;;;;9.00;9.00;;;;;13.23;56.78;100053.88;5086776;27;45371;-63
2021/10/29 06:31:16;;;;;;;;;10.25;10.00;;;;;13.26;57.00;100048.50;5088405;27;45553;-63
2021/10/29 06:33:41;;;;;;;;;12.25;12.00;;;;;13.25;56.87;100041.50;5080723;27;45314;-63
2021/10/29 06:36:07;;;;;;;;;9.00;9.00;;;;;13.25;57.00;100039.69;5080658;27;45383;-62
2021/10/29 06:38:33;;;;;;;;;8.00;8.00;;;;;13.28;57.17;100038.72;5080612;27;45464;-62
2021/10/29 06:40:59;;;;;;;;;11.00;8.25;;;;;13.30;56.87;100042.19;5080303;27;45325;-63
2021/10/29 07:04:42;;;;;;;;;9.75;9.00;;;;;13.42;57.35;100041.75;5080681;27;45310;-62
2021/10/29 07:40:07;;;;;;;;;6.75;6.75;;;;;13.90;57.35;100045.22;5100636;27;45283;-62
2021/10/29 07:43:01;;;;;;;;;9.50;9.00;;;;;13.97;57.60;100045.84;5100059;27;46222;-64
2021/10/29 07:45:26;;;;;;;;;7.00;7.00;;;;;14.01;57.24;100042.16;5099726;27;45224;-61
2021/10/29 07:47:54;;;;;;;;;8.50;7.75;;;;;14.09;57.65;100039.22;5100475;27;45397;-61
2021/10/29 07:50:20;;;;;;;;;9.75;9.75;;;;;14.12;57.44;100054.94;5099146;27;45451;-61
2021/10/29 07:52:47;;;;;;;;;7.25;7.00;;;;;14.17;57.39;100052.97;5100326;27;45405;-60
2021/10/29 07:55:15;;;;;;;;;10.00;8.50;;;;;14.21;57.63;100051.91;5100039;27;45163;-61
2021/10/29 07:57:41;;;;;;;;;7.25;6.75;;;;;14.29;57.20;100062.22;5100297;27;45235;-61
2021/10/29 08:00:09;;;;;;;;;8.75;8.75;;;;;14.32;57.33;100059.44;5098807;27;45555;-61
2021/10/29 08:02:35;;;;;;;;;8.00;8.00;;;;;14.37;57.59;100057.47;5100069;27;45345;-61
2021/10/29 08:05:01;;;;;;;;;6.75;6.75;;;;;14.45;56.95;100078.28;5098731;27;46145;-61
2021/10/29 08:07:27;;;;;;;;;9.00;9.00;;;;;14.48;57.57;100062.31;5100178;27;45321;-61
2021/10/29 08:09:53;;;;;;;;;8.00;7.75;;;;;14.56;57.41;100067.28;5100017;27;45475;-61
2021/10/29 08:12:19;;;;;;;;;11.25;9.00;;;;;14.57;57.08;100074.28;5102844;27;46319;-62
2021/10/29 08:14:49;;;;;;;;;7.00;7.00;;;;;14.63;56.88;100082.81;5103517;27;45361;-61
2021/10/29 08:17:16;;;;;;;;;10.25;10.25;;;;;14.66;56.94;100065.16;5090067;27;45484;-61
2021/10/29 08:19:41;;;;;;;;;8.75;8.75;;;;;14.74;57.34;100073.59;5083017;27;45257;-61
2021/10/29 08:22:07;;;;;;;;;7.00;7.00;;;;;14.75;57.12;100081.50;5082866;27;46270;-61
2021/10/29 08:24:33;;;;;;;;;6.25;6.25;;;;;14.82;56.88;100083.84;5083399;27;45307;-62
2021/10/29 08:27:01;;;;;;;;;7.00;6.75;;;;;14.83;56.97;100073.25;5089910;27;45283;-62
2021/10/29 08:29:27;;;;;;;;;8.50;7.50;;;;;14.90;56.89;100073.81;5082974;27;45468;-62
2021/10/29 08:31:53;;;;;;;;;9.25;7.25;;;;;14.90;57.07;100079.97;5082601;27;46295;-61
2021/10/29 08:34:24;;;;;;;;;9.00;9.00;;;;;14.94;57.37;100071.00;5081750;27;45327;-61
2021/10/29 08:36:56;;;;;;;;;8.50;6.50;;;;;14.96;56.93;100070.91;5082855;27;45344;-61
2021/10/29 08:39:22;;;;;;;;;7.50;6.00;;;;;15.03;57.02;100072.38;5082769;27;45271;-61
2021/10/29 08:41:48;;;;;;;;;10.50;7.00;;;;;15.04;57.15;100070.59;5082374;27;45251;-63
2021/10/29 08:44:15;;;;;;;;;7.50;7.50;;;;;15.13;56.58;100078.09;5082496;27;45253;-62
2021/10/29 08:46:42;;;;;;;;;6.50;6.50;;;;;15.12;56.89;100068.47;5082509;27;46457;-61
2021/10/29 08:49:08;;;;;;;;;9.50;9.25;;;;;15.18;56.53;100075.28;5082493;27;45413;-62
2021/10/29 08:51:34;;;;;;;;;10.00;6.50;;;;;15.22;56.87;100082.13;5082305;27;46112;-71
2021/10/29 08:54:00;;;;;;;;;8.75;8.00;;;;;15.23;56.75;100078.56;5082514;27;45386;-73
2021/10/29 08:56:28;;;;;;;;;6.25;6.25;;;;;15.24;57.15;100085.59;5082708;27;45330;-76
2021/10/29 08:59:13;;;;;;;;;10.25;10.25;;;;;15.27;56.97;100074.88;5082558;27;45228;-70
2021/10/29 09:02:39;;;;;;;;;8.50;7.25;;;;;15.33;56.83;100076.38;5081817;27;46037;-72
2021/10/29 09:32:43;;;;;;;;;7.25;7.25;;;;;15.72;56.47;100088.75;5081669;28;45247;-60
2021/10/29 09:35:11;;;;;;;;;6.50;6.50;;;;;15.67;56.65;100090.75;5081679;27;45570;-60
2021/10/29 09:38:13;;;;;;;;;7.75;7.00;;;;;15.75;56.10;100093.91;5082023;27;45497;-60
2021/10/29 09:40:53;;;;;;;;;8.25;7.50;;;;;15.74;56.61;100081.59;5019360;28;45230;-60
2021/10/29 09:43:20;;;;;;;;;4.75;4.50;;;;;15.76;56.39;100085.03;5071524;27;45431;-60
2021/10/29 09:46:05;;;;;;;;;7.25;6.00;;;;;15.76;56.22;100083.25;5081584;27;46165;-61
2021/10/29 09:48:49;;;;;;;;;6.00;6.00;;;;;15.83;56.45;100091.78;5081281;27;45322;-60
2021/10/29 09:51:22;;;;;;;;;9.75;6.75;;;;;15.82;56.41;100078.63;5081739;27;45331;-60
2021/10/29 09:58:56;;;;;;;;;11.25;9.75;;;;;15.95;56.21;100086.84;5081366;27;45251;-60
2021/10/29 10:01:23;;;;;;;;;8.00;6.50;;;;;15.95;56.33;100087.72;5081133;27;45346;-60
2021/10/29 10:03:50;;;;;;;;;6.00;4.00;;;;;15.98;56.67;100086.72;5081394;27;45350;-60
2021/10/29 10:06:18;;;;;;;;;10.25;6.50;;;;;16.00;56.54;100103.38;5081247;27;46169;-61
2021/10/29 10:08:45;;;;;;;;;7.25;7.00;;;;;16.06;56.13;100097.78;5081469;27;45281;-60
2021/10/29 10:11:12;;;;;;;;;10.25;8.75;;;;;16.12;56.33;100105.47;5081284;27;45296;-60
2021/10/29 10:13:40;;;;;;;;;7.75;6.75;;;;;16.14;56.14;100105.38;5089622;27;45390;-59
2021/10/29 10:16:06;;;;;;;;;5.50;5.50;;;;;16.18;56.10;100099.88;5097529;27;45421;-60
2021/10/29 10:18:32;;;;;;;;;6.75;5.75;;;;;16.23;56.36;100118.22;5080977;27;45251;-60
2021/10/29 10:21:01;;;;;;;;;6.00;5.00;;;;;16.28;56.49;100102.94;5081079;27;45245;-60
2021/10/29 10:23:33;;;;;;;;;11.75;10.75;;;;;16.31;56.42;100109.88;5081155;27;45473;-60
2021/10/29 10:26:20;;;;;;;;;7.00;7.00;;;;;16.32;56.23;100106.31;5088283;27;46232;-60
2021/10/29 10:40:26;;;;;;;;;9.50;7.00;;;;;16.50;56.18;100113.38;5080715;27;45299;-59
2021/10/29 10:48:26;;;;;;;;;8.50;6.75;;;;;16.49;56.52;100106.34;5080482;27;45601;-59
2021/10/29 10:50:56;;;;;;;;;14.00;11.25;;;;;16.47;56.49;100102.91;5080582;27;45243;-59
2021/10/29 10:53:36;;;;;;;;;7.00;4.50;;;;;16.51;56.47;100103.63;5080782;27;45539;-59
2021/10/29 11:07:39;;;;;;;;;8.75;8.75;;;;;16.47;57.30;100079.03;5088538;27;45316;-59
2021/10/29 11:10:09;;;;;;;;;9.50;8.00;;;;;16.41;57.04;100071.38;5100643;27;46007;-60
2021/10/29 11:12:41;;;;;;;;;8.25;8.25;;;;;16.50;57.30;100088.63;5083247;27;45447;-59
2021/10/29 11:15:07;;;;;;;;;10.00;8.50;;;;;16.50;56.96;100102.78;5089511;27;45507;-59
2021/10/29 11:17:50;;;;;;;;;10.50;8.25;;;;;16.51;57.49;100095.66;5084520;27;45412;-59
2021/10/29 11:20:42;;;;;;;;;10.00;9.00;;;;;16.52;57.42;100100.88;5078725;27;45924;-59
2021/10/29 11:23:12;;;;;;;;;12.50;10.25;;;;;16.52;57.57;100092.09;5088201;27;45385;-59
2021/10/29 11:25:50;;;;;;;;;10.25;8.75;;;;;16.50;57.66;100096.59;5098715;27;45419;-63
2021/10/29 11:28:17;;;;;;;;;10.00;7.00;;;;;16.44;57.92;100092.47;5080085;27;45284;-60
2021/10/29 11:30:44;;;;;;;;;9.50;9.00;;;;;16.46;57.58;100085.28;5080020;27;46449;-60
2021/10/29 11:33:09;;;;;;;;;8.75;8.75;;;;;16.45;57.82;100093.31;5079793;27;45406;-59
2021/10/29 11:35:36;;;;;;;;;9.75;7.75;;;;;16.43;57.91;100080.13;5078637;28;45623;-59
2021/10/29 11:38:03;;;;;;;;;9.25;9.25;;;;;16.44;57.97;100087.16;5080099;27;45255;-59
2021/10/29 11:40:31;;;;;;;;;11.00;10.00;;;;;16.43;58.14;100077.47;5079807;27;45277;-60
2021/10/29 11:42:57;;;;;;;;;8.25;7.50;;;;;16.41;58.09;100071.38;5079850;27;45313;-59
2021/10/29 11:45:31;;;;;;;;;9.75;8.50;;;;;16.45;57.92;100077.41;5079900;27;45334;-59
2021/10/29 11:47:57;;;;;;;;;11.50;11.25;;;;;16.46;58.06;100074.66;5083442;27;45481;-59
2021/10/29 11:50:24;;;;;;;;;15.50;12.00;;;;;16.46;57.95;100069.38;5083261;27;46138;-59
2021/10/29 11:52:49;;;;;;;;;15.25;14.25;;;;;16.45;58.11;100058.84;5083689;27;45299;-60
2021/10/29 11:55:29;;;;;;;;;18.25;16.00;;;;;16.49;57.89;100055.97;5083348;27;45345;-60
2021/10/29 11:58:04;;;;;;;;;13.00;11.75;;;;;16.48;57.96;100051.59;5083457;27;45421;-60
2021/10/29 12:00:45;;;;;;;;;14.50;13.00;;;;;16.50;58.14;100040.91;5083191;27;46692;-60
2021/10/29 12:07:13;;;;;;;;;14.00;12.00;;;;;16.57;58.11;100042.31;5083384;27;45434;-60
2021/10/29 12:08:46;;;;;;;;;12.50;11.50;;;;;16.61;58.14;100040.38;5074855;27;45300;-60
2021/10/29 12:11:12;;;;;;;;;10.00;10.00;;;;;16.62;57.97;100040.28;5083027;27;46090;-60
2021/10/29 12:13:40;;;;;;;;;11.00;9.25;;;;;16.62;58.20;100039.44;5090205;27;45352;-60
2021/10/29 12:16:17;;;;;;;;;10.25;8.50;;;;;16.62;58.37;100042.09;5099604;27;45300;-60
2021/10/29 12:19:01;;;;;;;;;11.25;10.75;;;;;16.61;58.37;100046.53;5083118;27;45438;-60
2021/10/29 12:21:31;;;;;;;;;11.00;10.25;;;;;16.61;58.03;100040.38;5082777;27;46062;-60
2021/10/29 12:23:56;;;;;;;;;15.00;13.25;;;;;16.64;58.08;100029.59;5082918;27;45148;-60
2021/10/29 12:26:24;;;;;;;;;13.25;10.50;;;;;16.61;58.30;100025.31;5089563;27;45478;-60
2021/10/29 12:28:54;;;;;;;;;12.50;11.50;;;;;16.64;58.34;100034.91;5082849;27;45596;-60
2021/10/29 12:47:38;;;;;;;;;9.00;8.75;;;;;16.71;58.33;100025.69;5091107;27;45345;-60
2021/10/29 13:04:10;;;;;;;;;11.75;10.25;;;;;16.94;58.06;99999.81;5102880;27;45334;-60
2021/10/29 13:06:55;;;;;;;;;9.50;9.50;;;;;16.98;58.02;99996.91;5102793;27;45289;-60
2021/10/29 13:09:24;;;;;;;;;10.50;9.00;;;;;17.00;57.85;99994.19;5102902;27;45398;-60
2021/10/29 13:11:54;;;;;;;;;9.00;9.00;;;;;17.01;58.03;99986.13;5102752;27;45394;-60
2021/10/29 13:14:27;;;;;;;;;10.75;9.00;;;;;17.02;58.15;99989.66;5102473;27;45187;-60
2021/10/29 13:16:55;;;;;;;;;9.75;8.25;;;;;17.03;58.08;99996.66;5092085;27;45456;-60
2021/10/29 13:35:36;;;;;;;;;19.75;14.50;;;;;17.08;58.08;100046.84;5081799;28;45355;-60
2021/10/29 13:52:15;;;;;;;;;10.50;8.00;;;;;16.70;58.68;100050.50;5081754;28;45386;-60
2021/10/29 14:16:36;;;;;;;;;13.75;11.00;;;;;16.06;60.02;100063.34;5095992;27;45358;-58
2021/10/29 14:35:00;;;;;;;;;5.25;3.00;;;;;15.71;60.54;100063.19;5081083;27;45447;-58
2021/10/29 14:48:03;;;;;;;;;10.50;10.50;;;;;15.63;60.79;100084.72;5069663;27;45349;-59
2021/10/29 15:30:40;;;;;;;;;13.25;13.00;;;;;15.44;62.20;100092.66;5080054;27;45396;-53
2021/10/29 15:46:28;;;;;;;;;14.00;13.25;;;;;15.45;62.31;100065.25;5078738;27;45574;-59
2021/10/29 15:49:03;;;;;;;;;12.25;11.50;;;;;15.48;62.07;100074.84;5081415;27;45578;-59
2021/10/29 15:51:30;;;;;;;;;13.25;11.50;;;;;15.42;62.50;100075.97;5087869;27;45466;-60
2021/10/29 15:53:56;;;;;;;;;14.00;12.00;;;;;15.42;62.60;100078.59;5099697;27;45288;-60
2021/10/29 15:56:27;;;;;;;;;13.25;11.25;;;;;15.38;62.82;100079.69;5090061;27;45341;-60
2021/10/29 16:17:39;;;;;;;;;11.00;10.75;;;;;15.39;62.92;100097.28;5098665;27;45351;-59
2021/10/29 16:20:05;;;;;;;;;8.75;8.50;;;;;15.37;62.84;100101.78;5099887;27;45460;-60